createdAt,value
2022-12-26T00:01:01.882Z,100.00
2022-12-26T00:03:30.588Z,100.00
2022-12-26T00:05:58.551Z,100.00
2022-12-26T00:08:26.432Z,100.00
2022-12-26T00:10:54.284Z,100.00
2022-12-26T00:13:37.101Z,100.00
2022-12-26T00:16:12.019Z,100.00
2022-12-26T00:18:40.651Z,100.00
2022-12-26T00:21:09.878Z,100.00
2022-12-26T00:23:38.680Z,100.00
2022-12-26T00:26:08.798Z,100.00
2022-12-26T00:28:37.149Z,100.00
2022-12-26T00:31:06.616Z,100.00
2022-12-26T00:33:36.549Z,100.00
2022-12-26T00:36:06.103Z,100.00
2022-12-26T00:38:35.217Z,100.00
2022-12-26T00:41:03.433Z,100.00
2022-12-26T00:43:31.678Z,100.00
2022-12-26T00:45:59.777Z,100.00
2022-12-26T00:48:28.605Z,100.00
2022-12-26T00:50:58.140Z,100.00
2022-12-26T00:53:26.856Z,100.00
2022-12-26T00:55:54.683Z,100.00
2022-12-26T00:58:23.289Z,100.00
2022-12-26T01:00:51.885Z,100.00
2022-12-26T01:03:20.618Z,100.00
2022-12-26T01:05:49.873Z,100.00
2022-12-26T01:08:24.617Z,100.00
2022-12-26T01:10:53.353Z,100.00
2022-12-26T01:13:21.302Z,100.00
2022-12-26T01:15:50.620Z,100.00
2022-12-26T01:18:18.652Z,100.00
2022-12-26T01:20:46.581Z,100.00
2022-12-26T01:23:14.506Z,100.00
2022-12-26T01:26:16.444Z,100.00
2022-12-26T01:28:31.736Z,100.00
2022-12-26T01:31:02.781Z,100.00
2022-12-26T01:33:30.990Z,100.00
2022-12-26T01:35:59.257Z,100.00
2022-12-26T01:38:27.093Z,100.00
2022-12-26T01:41:10.224Z,100.00
2022-12-26T01:43:56.416Z,100.00
2022-12-26T01:46:31.907Z,100.00
2022-12-26T01:49:03.054Z,100.00
2022-12-26T01:51:34.632Z,100.00
2022-12-26T01:54:39.010Z,100.00
2022-12-26T01:56:55.510Z,100.00
2022-12-26T01:59:27.415Z,100.00
2022-12-26T02:01:56.525Z,100.00
2022-12-26T02:04:47.151Z,100.00
2022-12-26T02:07:15.201Z,100.00
2022-12-26T02:09:43.593Z,100.00
2022-12-26T02:12:34.631Z,100.00
2022-12-26T02:15:08.886Z,100.00
2022-12-26T02:17:37.779Z,100.00
2022-12-26T02:20:17.370Z,100.00
2022-12-26T02:23:19.950Z,100.00
2022-12-26T02:26:11.378Z,100.00
2022-12-26T02:29:12.047Z,100.00
2022-12-26T02:31:49.603Z,100.00
2022-12-26T02:34:21.868Z,100.00
2022-12-26T02:37:03.624Z,100.00
2022-12-26T02:39:48.267Z,100.00
2022-12-26T02:42:30.423Z,100.00
2022-12-26T02:45:21.512Z,100.00
2022-12-26T02:47:58.670Z,100.00
2022-12-26T02:50:56.338Z,100.00
2022-12-26T02:53:51.185Z,100.00
2022-12-26T02:56:42.567Z,100.00
2022-12-26T02:59:54.140Z,100.00
2022-12-26T03:02:46.674Z,100.00
2022-12-26T03:05:38.423Z,100.00
2022-12-26T03:08:27.755Z,100.00
2022-12-26T03:11:16.011Z,100.00
2022-12-26T03:13:46.773Z,100.00
2022-12-26T03:16:45.482Z,100.00
2022-12-26T03:19:15.258Z,100.00
2022-12-26T03:21:46.807Z,100.00
2022-12-26T03:24:18.034Z,100.00
2022-12-26T03:26:50.515Z,100.00
2022-12-26T03:29:38.666Z,100.00
2022-12-26T03:32:09.161Z,100.00
2022-12-26T03:34:42.696Z,100.00
2022-12-26T03:37:48.305Z,100.00
2022-12-26T03:41:10.957Z,100.00
2022-12-26T03:44:08.473Z,100.00
2022-12-26T03:47:05.753Z,100.00
2022-12-26T03:50:00.029Z,100.00
2022-12-26T03:52:55.017Z,100.00
2022-12-26T03:55:44.707Z,100.00
2022-12-26T03:58:33.910Z,100.00
2022-12-26T04:01:30.045Z,100.00
2022-12-26T04:04:18.066Z,100.00
2022-12-26T04:07:11.724Z,100.00
2022-12-26T04:10:02.201Z,100.00
2022-12-26T04:12:48.396Z,100.00
2022-12-26T04:15:40.319Z,100.00
2022-12-26T04:18:32.710Z,100.00
2022-12-26T04:21:29.431Z,100.00
2022-12-26T04:24:18.472Z,100.00
2022-12-26T04:27:09.639Z,100.00
2022-12-26T04:29:54.775Z,100.00
2022-12-26T04:32:48.555Z,100.00
2022-12-26T04:35:39.728Z,100.00
2022-12-26T04:38:25.869Z,100.00
2022-12-26T04:41:18.483Z,100.00
2022-12-26T04:44:04.102Z,100.00
2022-12-26T04:46:33.198Z,100.00
2022-12-26T04:49:21.854Z,100.00
2022-12-26T04:51:49.753Z,100.00
2022-12-26T04:54:17.992Z,100.00
2022-12-26T04:56:45.817Z,100.00
2022-12-26T04:59:15.339Z,100.00
2022-12-26T05:02:01.006Z,100.00
2022-12-26T05:04:47.074Z,100.00
2022-12-26T05:07:36.191Z,100.00
2022-12-26T05:10:06.281Z,100.00
2022-12-26T05:12:34.125Z,100.00
2022-12-26T05:15:03.379Z,100.00
2022-12-26T05:17:48.478Z,100.00
2022-12-26T05:20:33.767Z,100.00
2022-12-26T05:23:21.086Z,100.00
2022-12-26T05:26:07.215Z,100.00
2022-12-26T05:28:43.816Z,100.00
2022-12-26T05:31:14.895Z,100.00
2022-12-26T05:34:00.726Z,100.00
2022-12-26T05:36:31.364Z,100.00
2022-12-26T05:38:59.137Z,100.00
2022-12-26T05:41:26.961Z,100.00
2022-12-26T05:43:54.802Z,100.00
2022-12-26T05:46:24.068Z,100.00
2022-12-26T05:48:52.023Z,100.00
2022-12-26T05:51:19.854Z,100.00
2022-12-26T05:53:48.366Z,100.00
2022-12-26T05:56:18.625Z,100.00
2022-12-26T05:58:46.909Z,100.00
2022-12-26T06:01:16.441Z,100.00
2022-12-26T06:03:49.187Z,100.00
2022-12-26T06:06:18.047Z,100.00
2022-12-26T06:08:48.942Z,100.00
2022-12-26T06:11:18.010Z,100.00
2022-12-26T06:13:46.234Z,100.00
2022-12-26T06:16:16.167Z,100.00
2022-12-26T06:18:46.632Z,100.00
2022-12-26T06:21:16.223Z,100.00
2022-12-26T06:23:44.487Z,100.00
2022-12-26T06:26:12.926Z,100.00
2022-12-26T06:28:41.863Z,100.00
2022-12-26T06:31:12.563Z,100.00
2022-12-26T06:33:40.379Z,100.00
2022-12-26T06:36:12.413Z,100.00
2022-12-26T06:38:40.574Z,100.00
2022-12-26T06:41:10.221Z,100.00
2022-12-26T06:43:39.703Z,100.00
2022-12-26T06:46:09.334Z,100.00
2022-12-26T06:48:39.714Z,100.00
2022-12-26T06:51:12.555Z,100.00
2022-12-26T06:53:40.816Z,100.00
2022-12-26T06:56:10.090Z,100.00
2022-12-26T06:58:37.959Z,100.00
2022-12-26T07:01:07.311Z,100.00
2022-12-26T07:03:35.550Z,100.00
2022-12-26T07:06:05.056Z,100.00
2022-12-26T07:08:34.494Z,100.00
2022-12-26T07:11:02.318Z,100.00
2022-12-26T07:13:30.540Z,100.00
2022-12-26T07:16:00.508Z,100.00
2022-12-26T07:18:28.452Z,100.00
2022-12-26T07:20:56.205Z,100.00
2022-12-26T07:23:24.106Z,100.00
2022-12-26T07:25:53.214Z,100.00
2022-12-26T07:28:21.023Z,100.00
2022-12-26T07:30:49.212Z,100.00
2022-12-26T07:33:17.342Z,100.00
2022-12-26T07:35:45.195Z,100.00
2022-12-26T07:38:13.836Z,100.00
2022-12-26T07:40:41.870Z,100.00
2022-12-26T07:43:11.147Z,100.00
2022-12-26T07:45:45.078Z,100.00
2022-12-26T07:48:13.555Z,100.00
2022-12-26T07:50:41.445Z,100.00
2022-12-26T07:53:09.252Z,100.00
2022-12-26T07:55:37.034Z,100.00
2022-12-26T07:58:04.894Z,100.00
2022-12-26T08:00:34.222Z,100.00
2022-12-26T08:03:07.424Z,100.00
2022-12-26T08:05:36.358Z,100.00
2022-12-26T08:08:04.364Z,100.00
2022-12-26T08:10:32.496Z,100.00
2022-12-26T08:13:00.328Z,100.00
2022-12-26T08:15:28.211Z,100.00
2022-12-26T08:17:57.394Z,100.00
2022-12-26T08:20:25.265Z,100.00
2022-12-26T08:22:53.172Z,100.00
2022-12-26T08:25:22.137Z,100.00
2022-12-26T08:27:50.314Z,100.00
2022-12-26T08:30:18.476Z,100.00
2022-12-26T08:32:46.674Z,100.00
2022-12-26T08:35:16.005Z,100.00
2022-12-26T08:37:43.806Z,100.00
2022-12-26T08:40:12.822Z,100.00
2022-12-26T08:42:56.228Z,100.00
2022-12-26T08:45:28.807Z,100.00
2022-12-26T08:47:56.694Z,100.00
2022-12-26T08:50:26.102Z,100.00
2022-12-26T08:52:53.938Z,100.00
2022-12-26T08:55:21.797Z,100.00
2022-12-26T08:57:49.723Z,100.00
2022-12-26T09:00:18.261Z,100.00
2022-12-26T09:02:46.218Z,100.00
2022-12-26T09:05:14.142Z,100.00
2022-12-26T09:07:43.288Z,100.00
2022-12-26T09:10:11.647Z,100.00
2022-12-26T09:12:39.415Z,100.00
2022-12-26T09:15:07.809Z,100.00
2022-12-26T09:17:35.696Z,100.00
2022-12-26T09:20:03.981Z,100.00
2022-12-26T09:22:49.412Z,100.00
2022-12-26T09:25:19.322Z,100.00
2022-12-26T09:27:47.276Z,100.00
2022-12-26T09:30:15.681Z,100.00
2022-12-26T09:32:43.521Z,100.00
2022-12-26T09:35:11.339Z,100.00
2022-12-26T09:37:39.660Z,100.00
2022-12-26T09:40:15.348Z,100.00
2022-12-26T09:42:55.625Z,100.00
2022-12-26T09:45:33.080Z,100.00
2022-12-26T09:48:12.914Z,100.00
2022-12-26T09:50:43.364Z,100.00
2022-12-26T09:53:16.127Z,100.00
2022-12-26T09:55:49.830Z,100.00
2022-12-26T09:58:27.224Z,100.00
2022-12-26T10:01:01.208Z,100.00
2022-12-26T10:03:29.510Z,100.00
2022-12-26T10:06:11.369Z,100.00
2022-12-26T10:09:05.220Z,100.00
2022-12-26T10:11:46.421Z,100.00
2022-12-26T10:14:22.165Z,100.00
2022-12-26T10:16:57.617Z,100.00
2022-12-26T10:19:40.560Z,100.00
2022-12-26T10:22:33.968Z,100.00
2022-12-26T10:25:04.004Z,100.00
2022-12-26T10:27:38.790Z,100.00
2022-12-26T10:30:19.184Z,100.00
2022-12-26T10:32:52.234Z,100.00
2022-12-26T10:35:24.801Z,100.00
2022-12-26T10:37:55.120Z,100.00
2022-12-26T10:40:25.334Z,100.00
2022-12-26T10:42:55.296Z,100.00
2022-12-26T10:45:34.514Z,100.00
2022-12-26T10:48:02.882Z,100.00
2022-12-26T10:50:33.001Z,100.00
2022-12-26T10:53:04.510Z,100.00
2022-12-26T10:55:35.051Z,100.00
2022-12-26T10:58:07.867Z,100.00
2022-12-26T11:00:37.025Z,100.00
2022-12-26T11:03:07.840Z,100.00
2022-12-26T11:06:06.333Z,100.00
2022-12-26T11:08:33.365Z,100.00
2022-12-26T11:11:08.091Z,100.00
2022-12-26T11:13:40.089Z,100.00
2022-12-26T11:16:11.262Z,100.00
2022-12-26T11:18:47.574Z,100.00
2022-12-26T11:21:23.225Z,100.00
2022-12-26T11:23:52.600Z,100.00
2022-12-26T11:26:23.666Z,100.00
2022-12-26T11:29:07.369Z,100.00
2022-12-26T11:31:36.958Z,100.00
2022-12-26T11:34:09.888Z,100.00
2022-12-26T11:36:41.439Z,100.00
2022-12-26T11:39:23.648Z,100.00
2022-12-26T11:41:52.783Z,100.00
2022-12-26T11:44:25.996Z,100.00
2022-12-26T11:46:59.841Z,100.00
2022-12-26T11:49:31.950Z,100.00
2022-12-26T11:52:01.883Z,100.00
2022-12-26T11:54:34.009Z,100.00
2022-12-26T11:57:17.582Z,100.00
2022-12-26T11:59:46.276Z,100.00
2022-12-26T12:02:29.944Z,100.00
2022-12-26T12:05:01.848Z,100.00
2022-12-26T12:07:43.981Z,100.00
2022-12-26T12:10:35.306Z,100.00
2022-12-26T12:13:11.392Z,100.00
2022-12-26T12:15:48.584Z,100.00
2022-12-26T12:18:23.558Z,100.00
2022-12-26T12:21:04.880Z,100.00
2022-12-26T12:23:48.330Z,100.00
2022-12-26T12:26:19.485Z,100.00
2022-12-26T12:29:09.145Z,100.00
2022-12-26T12:31:47.818Z,100.00
2022-12-26T12:34:28.766Z,98.87
2022-12-26T12:37:12.874Z,97.10
2022-12-26T12:39:53.206Z,95.10
2022-12-26T12:42:34.389Z,93.00
2022-12-26T12:45:26.966Z,90.59
2022-12-26T12:48:24.502Z,88.74
2022-12-26T12:51:00.213Z,88.79
2022-12-26T12:53:45.131Z,87.19
2022-12-26T12:56:26.405Z,86.80
2022-12-26T12:59:05.333Z,86.33
2022-12-26T13:01:37.242Z,85.45
2022-12-26T13:04:11.007Z,84.04
2022-12-26T13:06:44.583Z,84.12
2022-12-26T13:09:16.481Z,84.24
2022-12-26T13:11:47.969Z,84.39
2022-12-26T13:14:21.577Z,83.80
2022-12-26T13:16:56.171Z,83.90
2022-12-26T13:19:27.287Z,83.97
2022-12-26T13:22:02.436Z,83.05
2022-12-26T13:24:45.754Z,82.60
2022-12-26T13:27:17.585Z,84.02
2022-12-26T13:29:47.050Z,84.15
2022-12-26T13:32:20.731Z,83.67
2022-12-26T13:34:49.174Z,82.91
2022-12-26T13:37:58.696Z,81.49
2022-12-26T13:40:29.962Z,81.05
2022-12-26T13:43:20.571Z,80.43
2022-12-26T13:45:56.576Z,81.30
2022-12-26T13:49:07.696Z,81.34
2022-12-26T13:51:52.989Z,81.58
2022-12-26T13:54:24.622Z,80.65
2022-12-26T13:57:23.324Z,80.49
2022-12-26T14:00:17.270Z,80.96
2022-12-26T14:06:00.159Z,82.13
2022-12-26T14:08:36.771Z,82.66
2022-12-26T14:11:21.584Z,84.28
2022-12-26T14:14:10.423Z,83.80
2022-12-26T14:16:47.506Z,84.27
2022-12-26T14:19:27.466Z,83.94
2022-12-26T14:22:03.252Z,84.68
2022-12-26T14:24:37.750Z,86.36
2022-12-26T14:27:29.355Z,88.37
2022-12-26T14:30:07.670Z,92.34
2022-12-26T14:32:44.227Z,98.97
2022-12-26T14:35:21.213Z,100.00
2022-12-26T14:37:55.653Z,100.00
2022-12-26T14:40:32.015Z,100.00
2022-12-26T14:43:27.655Z,100.00
2022-12-26T14:45:57.550Z,100.00
2022-12-26T14:48:49.495Z,100.00
2022-12-26T14:51:30.385Z,100.00
2022-12-26T14:54:34.768Z,100.00
2022-12-26T14:57:23.014Z,100.00
2022-12-26T15:00:24.214Z,100.00
2022-12-26T15:03:25.053Z,100.00
2022-12-26T15:05:53.179Z,100.00
2022-12-26T15:08:37.449Z,100.00
2022-12-26T15:11:29.994Z,100.00
2022-12-26T15:14:27.466Z,100.00
2022-12-26T15:17:07.831Z,100.00
2022-12-26T15:20:09.700Z,100.00
2022-12-26T15:23:25.874Z,100.00
2022-12-26T15:26:25.530Z,100.00
2022-12-26T15:29:19.510Z,100.00
2022-12-26T15:31:59.832Z,100.00
2022-12-26T15:34:51.007Z,100.00
2022-12-26T15:37:32.610Z,100.00
2022-12-26T15:40:11.653Z,100.00
2022-12-26T15:42:49.094Z,99.03
2022-12-26T15:45:36.263Z,96.63
2022-12-26T15:48:24.485Z,95.94
2022-12-26T15:51:00.321Z,95.00
2022-12-26T15:53:44.934Z,94.80
2022-12-26T15:56:49.853Z,92.01
2022-12-26T15:59:53.057Z,91.57
2022-12-26T16:02:35.957Z,91.37
2022-12-26T16:05:25.133Z,91.56
2022-12-26T16:08:04.145Z,91.24
2022-12-26T16:10:36.012Z,92.09
2022-12-26T16:13:17.823Z,92.14
2022-12-26T16:15:47.503Z,93.05
2022-12-26T16:18:16.992Z,93.96
2022-12-26T16:21:03.806Z,94.32
2022-12-26T16:23:35.857Z,94.73
2022-12-26T16:26:05.427Z,95.59
2022-12-26T16:28:37.552Z,96.14
2022-12-26T16:31:06.889Z,97.45
2022-12-26T16:33:40.926Z,98.95
2022-12-26T16:36:11.139Z,100.00
2022-12-26T16:38:39.457Z,100.00
2022-12-26T16:41:21.997Z,100.00
2022-12-26T16:43:50.639Z,100.00
2022-12-26T16:46:20.834Z,100.00
2022-12-26T16:48:55.407Z,100.00
2022-12-26T16:51:39.206Z,100.00
2022-12-26T16:54:18.475Z,100.00
2022-12-26T16:56:52.274Z,100.00
2022-12-26T16:59:22.439Z,100.00
2022-12-26T17:01:52.207Z,100.00
2022-12-26T17:04:22.975Z,100.00
2022-12-26T17:06:55.289Z,100.00
2022-12-26T17:09:25.260Z,100.00
2022-12-26T17:11:57.281Z,100.00
2022-12-26T17:14:27.697Z,100.00
2022-12-26T17:16:59.506Z,100.00
2022-12-26T17:19:29.688Z,100.00
2022-12-26T17:22:21.309Z,100.00
2022-12-26T17:24:50.824Z,100.00
2022-12-26T17:27:23.348Z,100.00
2022-12-26T17:29:56.937Z,100.00
2022-12-26T17:32:34.011Z,100.00
2022-12-26T17:35:04.756Z,100.00
2022-12-26T17:37:33.460Z,100.00
2022-12-26T17:40:08.539Z,100.00
2022-12-26T17:42:49.310Z,100.00
2022-12-26T17:45:20.972Z,100.00
2022-12-26T17:47:48.847Z,100.00
2022-12-26T17:50:16.717Z,100.00
2022-12-26T17:52:44.609Z,100.00
2022-12-26T17:55:19.776Z,100.00
2022-12-26T17:57:48.976Z,100.00
2022-12-26T18:00:19.753Z,100.00
2022-12-26T18:02:47.665Z,100.00
2022-12-26T18:05:16.107Z,100.00
2022-12-26T18:07:44.544Z,100.00
2022-12-26T18:10:18.360Z,100.00
2022-12-26T18:12:46.303Z,100.00
2022-12-26T18:15:15.844Z,100.00
2022-12-26T18:17:44.146Z,100.00
2022-12-26T18:20:17.315Z,100.00
2022-12-26T18:22:45.274Z,100.00
2022-12-26T18:25:14.498Z,100.00
2022-12-26T18:27:43.361Z,100.00
2022-12-26T18:30:18.484Z,100.00
2022-12-26T18:32:47.842Z,100.00
2022-12-26T18:35:16.704Z,100.00
2022-12-26T18:37:47.903Z,100.00
2022-12-26T18:40:28.331Z,100.00
2022-12-26T18:42:56.323Z,100.00
2022-12-26T18:45:25.895Z,100.00
2022-12-26T18:47:54.349Z,100.00
2022-12-26T18:50:22.697Z,100.00
2022-12-26T18:52:53.826Z,100.00
2022-12-26T18:55:22.381Z,100.00
2022-12-26T18:57:50.263Z,100.00
2022-12-26T19:00:19.584Z,100.00
2022-12-26T19:02:49.457Z,100.00
2022-12-26T19:05:19.839Z,100.00
2022-12-26T19:07:48.417Z,100.00
2022-12-26T19:10:17.568Z,100.00
2022-12-26T19:12:45.503Z,100.00
2022-12-26T19:15:14.580Z,100.00
2022-12-26T19:17:43.727Z,100.00
2022-12-26T19:20:19.805Z,100.00
2022-12-26T19:22:48.829Z,100.00
2022-12-26T19:25:17.478Z,100.00
2022-12-26T19:27:45.678Z,100.00
2022-12-26T19:30:14.619Z,100.00
2022-12-26T19:32:43.261Z,100.00
2022-12-26T19:35:12.843Z,100.00
2022-12-26T19:37:40.683Z,100.00
2022-12-26T19:40:10.099Z,100.00
2022-12-26T19:42:38.431Z,100.00
2022-12-26T19:45:07.768Z,100.00
2022-12-26T19:47:35.897Z,100.00
2022-12-26T19:50:05.457Z,100.00
2022-12-26T19:52:36.497Z,100.00
2022-12-26T19:55:04.675Z,100.00
2022-12-26T19:57:32.702Z,100.00
2022-12-26T20:00:00.558Z,100.00
2022-12-26T20:02:28.510Z,100.00
2022-12-26T20:04:56.398Z,100.00
2022-12-26T20:07:24.276Z,100.00
2022-12-26T20:09:53.474Z,100.00
2022-12-26T20:12:21.467Z,100.00
2022-12-26T20:14:49.309Z,100.00
2022-12-26T20:17:17.234Z,100.00
2022-12-26T20:19:47.423Z,100.00
2022-12-26T20:22:15.269Z,100.00
2022-12-26T20:24:43.108Z,100.00
2022-12-26T20:27:13.599Z,100.00
2022-12-26T20:29:41.422Z,100.00
2022-12-26T20:32:09.340Z,100.00
2022-12-26T20:34:37.121Z,100.00
2022-12-26T20:37:05.157Z,100.00
2022-12-26T20:39:33.055Z,100.00
2022-12-26T20:42:00.856Z,100.00
2022-12-26T20:44:31.061Z,100.00
2022-12-26T20:46:58.982Z,100.00
2022-12-26T20:49:29.104Z,100.00
2022-12-26T20:51:56.916Z,100.00
2022-12-26T20:54:25.445Z,100.00
2022-12-26T20:56:53.388Z,100.00
2022-12-26T20:59:21.152Z,100.00
2022-12-26T21:01:50.457Z,100.00
2022-12-26T21:04:20.524Z,100.00
2022-12-26T21:06:50.343Z,100.00
2022-12-26T21:09:18.388Z,100.00
2022-12-26T21:11:46.369Z,100.00
2022-12-26T21:14:16.447Z,100.00
2022-12-26T21:16:46.679Z,100.00
2022-12-26T21:19:16.996Z,100.00
2022-12-26T21:21:46.645Z,100.00
2022-12-26T21:24:16.596Z,100.00
2022-12-26T21:26:45.766Z,100.00
2022-12-26T21:29:15.870Z,100.00
2022-12-26T21:31:44.334Z,100.00
2022-12-26T21:34:16.298Z,100.00
2022-12-26T21:37:05.168Z,100.00
2022-12-26T21:39:34.359Z,100.00
2022-12-26T21:42:03.989Z,100.00
2022-12-26T21:44:31.901Z,100.00
2022-12-26T21:46:59.948Z,100.00
2022-12-26T21:49:29.520Z,100.00
2022-12-26T21:51:57.342Z,100.00
2022-12-26T21:54:48.788Z,100.00
2022-12-26T21:57:17.226Z,100.00
2022-12-26T21:59:58.170Z,100.00
2022-12-26T22:02:54.438Z,100.00
2022-12-26T22:05:26.861Z,100.00
2022-12-26T22:07:56.196Z,100.00
2022-12-26T22:10:42.386Z,100.00
2022-12-26T22:13:10.412Z,100.00
2022-12-26T22:16:00.263Z,100.00
2022-12-26T22:18:28.342Z,100.00
2022-12-26T22:20:57.601Z,100.00
2022-12-26T22:23:25.464Z,100.00
2022-12-26T22:25:54.801Z,100.00
2022-12-26T22:28:23.678Z,100.00
2022-12-26T22:30:52.492Z,100.00
2022-12-26T22:33:20.877Z,100.00
2022-12-26T22:35:49.082Z,100.00
2022-12-26T22:38:18.448Z,100.00
2022-12-26T22:40:54.968Z,100.00
2022-12-26T22:43:23.323Z,100.00
2022-12-26T22:45:51.194Z,100.00
2022-12-26T22:48:19.422Z,100.00
2022-12-26T22:50:49.611Z,100.00
2022-12-26T22:53:18.944Z,100.00
2022-12-26T22:55:48.644Z,100.00
2022-12-26T22:58:17.771Z,100.00
2022-12-26T23:00:46.463Z,100.00
2022-12-26T23:03:15.229Z,100.00
2022-12-26T23:05:43.617Z,100.00
2022-12-26T23:08:17.391Z,100.00
2022-12-26T23:10:47.780Z,100.00
2022-12-26T23:13:17.519Z,100.00
2022-12-26T23:15:55.065Z,100.00
2022-12-26T23:18:49.204Z,100.00
2022-12-26T23:21:41.421Z,100.00
2022-12-26T23:24:13.450Z,100.00
2022-12-26T23:26:44.940Z,100.00
2022-12-26T23:29:31.165Z,100.00
2022-12-26T23:31:59.205Z,100.00
2022-12-26T23:34:27.743Z,100.00
2022-12-26T23:36:55.648Z,100.00
2022-12-26T23:39:23.474Z,100.00
2022-12-26T23:41:52.705Z,100.00
2022-12-26T23:44:20.711Z,100.00
2022-12-26T23:46:48.676Z,100.00
2022-12-26T23:49:17.169Z,100.00
2022-12-26T23:51:45.018Z,100.00
2022-12-26T23:54:12.839Z,100.00
2022-12-26T23:56:40.661Z,100.00
2022-12-26T23:59:09.963Z,100.00
